This is the latest recevied weather packets stored in our database for station/object R6HABA-13. If no packets are shown the sender has not sent any weather packets the latest 10 day(s).
| Time | Temp. | Humidity | Pressure | Rain* | Wind** | Luminosity | Snow |
|---|---|---|---|---|---|---|---|
| 1778008502 | 16.67° C | 78% | 1009 hPa | - | 2.24 m/s, 214° | - | - |
| 1778007603 | 16.67° C | 78% | 1009 hPa | - | 2.24 m/s, 214° | - | - |
| 1778006703 | 16.67° C | 78% | 1009 hPa | - | 2.24 m/s, 214° | - | - |
| 1778005803 | 16.67° C | 78% | 1009 hPa | - | 2.24 m/s, 214° | - | - |
| 1778004903 | 17.78° C | 72% | 1009 hPa | - | 0.45 m/s, 241° | - | - |
| 1778004004 | 17.78° C | 73% | 1009 hPa | - | 0.45 m/s, 241° | - | - |
| 1778003102 | 18.33° C | 73% | 1009 hPa | - | 0.45 m/s, 241° | - | - |
| 1778002203 | 18.89° C | 69% | 1009 hPa | - | 1.34 m/s, 288° | - | - |
| 1778001303 | 18.89° C | 69% | 1008 hPa | - | 1.34 m/s, 288° | - | - |
| 1778000403 | 19.44° C | 69% | 1009 hPa | - | 1.34 m/s, 288° | - | - |
| 1777999503 | 20° C | 68% | 1009 hPa | - | 1.34 m/s, 288° | - | - |
| 1777998603 | 21.67° C | 57% | 1009 hPa | - | 0.45 m/s, 274° | - | - |
| 1777997703 | 21.67° C | 57% | 1008 hPa | - | 0.89 m/s, 274° | - | - |
| 1777997456 | -17.78° C | 42% | 0 hPa | - | 0 m/s | - | - |
| 1777995903 | 21.67° C | 42% | 1008 hPa | - | 3.58 m/s, 250° | - | - |
| 1777995002 | 21.67° C | 42% | 1008 hPa | - | 3.58 m/s, 250° | - | - |
| 1777994103 | 21.67° C | 42% | 1008 hPa | - | 3.58 m/s, 250° | - | - |
| 1777993203 | 21.67° C | 42% | 1008 hPa | - | 3.58 m/s, 250° | - | - |
| 1777992302 | 21.67° C | 42% | 1008 hPa | - | 3.58 m/s, 250° | - | - |
| 1777991403 | 21.67° C | 42% | 1008 hPa | - | 3.58 m/s, 250° | - | - |
| 1777990503 | 21.67° C | 42% | 1008 hPa | - | 3.58 m/s, 250° | - | - |
| 1777989603 | 21.67° C | 42% | 1008 hPa | - | 3.58 m/s, 250° | - | - |
| 1777988703 | 21.67° C | 42% | 1008 hPa | - | 3.58 m/s, 250° | - | - |
| 1777987803 | 21.67° C | 42% | 1008 hPa | - | 3.58 m/s, 250° | - | - |
| 1777986902 | 21.67° C | 42% | 1008 hPa | - | 3.58 m/s, 250° | - | - |
* Rain since midnight (hover to see other rain measurements)
** Current wind speed in m/s (hover to see current wind gust speed)